Terminal Aerodrome Forecast
Issued by NWS Atlanta, GA

Home | Current Version | Previous Version | Text Only | Print | Product List | Glossary On
Versions: 1 2 3 4 5 6 7 8 9 10 11 12 13 14 15 16 17 18 19 20 21 22
000
FTUS42 KFFC 161700 RRA
TAFMCN
TAF
KMCN 161742Z 1618/1718 27007KT P6SM VCSH SCT025 BKN040
      TEMPO 1619/1623 5SM -TSRA BR BKN025CB
     FM170100 30005KT P6SM SCT120 BKN250
     FM170700 00000KT 4SM BR FEW250
     FM171500 33005KT P6SM FEW040 FEW250=

USA.gov is the U.S. government's official web portal to all federal, state and local government web resources and services.